sensor_id;sensor_type;location;lat;lon;timestamp;P1;durP1;ratioP1;P2;durP2;ratioP2
40939;SDS011;26666;50.156;7.700;2023-02-15T00:04:06;27.52;;;9.05;;
40939;SDS011;26666;50.156;7.700;2023-02-15T00:09:08;22.17;;;5.80;;
40939;SDS011;26666;50.156;7.700;2023-02-15T00:14:15;27.52;;;6.95;;
40939;SDS011;26666;50.156;7.700;2023-02-15T00:19:19;29.50;;;7.93;;
40939;SDS011;26666;50.156;7.700;2023-02-15T00:24:22;23.50;;;6.78;;
40939;SDS011;26666;50.156;7.700;2023-02-15T00:29:24;24.20;;;8.30;;
40939;SDS011;26666;50.156;7.700;2023-02-15T00:34:26;21.55;;;6.85;;
40939;SDS011;26666;50.156;7.700;2023-02-15T00:39:28;22.38;;;6.45;;
40939;SDS011;26666;50.156;7.700;2023-02-15T00:44:30;20.45;;;7.22;;
40939;SDS011;26666;50.156;7.700;2023-02-15T00:49:31;20.73;;;7.15;;
40939;SDS011;26666;50.156;7.700;2023-02-15T00:54:33;25.40;;;6.93;;
40939;SDS011;26666;50.156;7.700;2023-02-15T00:59:35;25.45;;;7.25;;
40939;SDS011;26666;50.156;7.700;2023-02-15T01:04:36;22.25;;;7.35;;
40939;SDS011;26666;50.156;7.700;2023-02-15T01:09:38;23.65;;;6.75;;
40939;SDS011;26666;50.156;7.700;2023-02-15T01:14:39;22.85;;;7.95;;
40939;SDS011;26666;50.156;7.700;2023-02-15T01:19:41;25.73;;;6.57;;
40939;SDS011;26666;50.156;7.700;2023-02-15T01:24:42;24.25;;;7.20;;
40939;SDS011;26666;50.156;7.700;2023-02-15T01:29:44;26.23;;;6.15;;
40939;SDS011;26666;50.156;7.700;2023-02-15T01:34:45;20.25;;;5.85;;
40939;SDS011;26666;50.156;7.700;2023-02-15T01:39:47;20.00;;;6.63;;
40939;SDS011;26666;50.156;7.700;2023-02-15T01:50:12;25.98;;;7.20;;
40939;SDS011;26666;50.156;7.700;2023-02-15T01:55:22;20.30;;;6.63;;
40939;SDS011;26666;50.156;7.700;2023-02-15T02:00:27;15.13;;;6.10;;
40939;SDS011;26666;50.156;7.700;2023-02-15T02:05:29;21.13;;;6.85;;
40939;SDS011;26666;50.156;7.700;2023-02-15T02:10:31;23.88;;;6.38;;
40939;SDS011;26666;50.156;7.700;2023-02-15T02:15:39;20.20;;;6.47;;
40939;SDS011;26666;50.156;7.700;2023-02-15T02:20:52;20.33;;;6.93;;
40939;SDS011;26666;50.156;7.700;2023-02-15T02:47:26;24.95;;;7.55;;
40939;SDS011;26666;50.156;7.700;2023-02-15T02:57:42;16.23;;;6.32;;
40939;SDS011;26666;50.156;7.700;2023-02-15T03:03:00;18.88;;;6.20;;
40939;SDS011;26666;50.156;7.700;2023-02-15T03:08:05;24.02;;;8.18;;
40939;SDS011;26666;50.156;7.700;2023-02-15T03:13:09;29.30;;;9.27;;
40939;SDS011;26666;50.156;7.700;2023-02-15T03:18:10;22.67;;;8.20;;
40939;SDS011;26666;50.156;7.700;2023-02-15T03:23:14;21.75;;;6.75;;
40939;SDS011;26666;50.156;7.700;2023-02-15T03:28:23;23.60;;;8.10;;
40939;SDS011;26666;50.156;7.700;2023-02-15T03:33:31;17.55;;;5.55;;
40939;SDS011;26666;50.156;7.700;2023-02-15T03:38:44;25.87;;;7.47;;
40939;SDS011;26666;50.156;7.700;2023-02-15T03:43:57;20.70;;;6.28;;
40939;SDS011;26666;50.156;7.700;2023-02-15T03:49:10;19.67;;;5.95;;
40939;SDS011;26666;50.156;7.700;2023-02-15T03:54:27;15.35;;;5.15;;
40939;SDS011;26666;50.156;7.700;2023-02-15T03:59:31;15.85;;;5.93;;
40939;SDS011;26666;50.156;7.700;2023-02-15T04:04:34;14.48;;;5.65;;
40939;SDS011;26666;50.156;7.700;2023-02-15T04:09:37;23.90;;;4.88;;
40939;SDS011;26666;50.156;7.700;2023-02-15T04:14:39;25.50;;;6.18;;
40939;SDS011;26666;50.156;7.700;2023-02-15T04:19:40;20.00;;;6.85;;
40939;SDS011;26666;50.156;7.700;2023-02-15T04:24:42;18.88;;;5.75;;
40939;SDS011;26666;50.156;7.700;2023-02-15T04:29:43;14.73;;;5.18;;
40939;SDS011;26666;50.156;7.700;2023-02-15T04:34:45;22.80;;;6.03;;
40939;SDS011;26666;50.156;7.700;2023-02-15T04:39:46;19.17;;;6.93;;
40939;SDS011;26666;50.156;7.700;2023-02-15T04:44:48;17.42;;;5.78;;
40939;SDS011;26666;50.156;7.700;2023-02-15T04:49:49;17.45;;;5.38;;
40939;SDS011;26666;50.156;7.700;2023-02-15T04:54:51;24.52;;;6.75;;
40939;SDS011;26666;50.156;7.700;2023-02-15T04:59:52;18.05;;;5.13;;
40939;SDS011;26666;50.156;7.700;2023-02-15T05:04:54;22.52;;;5.63;;
40939;SDS011;26666;50.156;7.700;2023-02-15T05:09:55;18.70;;;6.45;;
40939;SDS011;26666;50.156;7.700;2023-02-15T05:14:57;17.33;;;5.53;;
40939;SDS011;26666;50.156;7.700;2023-02-15T05:19:58;16.63;;;6.20;;
40939;SDS011;26666;50.156;7.700;2023-02-15T05:25:00;17.35;;;5.10;;
40939;SDS011;26666;50.156;7.700;2023-02-15T05:30:02;24.60;;;6.72;;
40939;SDS011;26666;50.156;7.700;2023-02-15T05:35:05;19.13;;;5.68;;
40939;SDS011;26666;50.156;7.700;2023-02-15T05:40:08;14.38;;;5.40;;
40939;SDS011;26666;50.156;7.700;2023-02-15T05:45:09;18.77;;;5.95;;
40939;SDS011;26666;50.156;7.700;2023-02-15T05:50:11;15.50;;;5.40;;
40939;SDS011;26666;50.156;7.700;2023-02-15T05:55:13;13.50;;;4.65;;
40939;SDS011;26666;50.156;7.700;2023-02-15T06:00:14;23.88;;;6.05;;
40939;SDS011;26666;50.156;7.700;2023-02-15T06:05:16;20.42;;;6.40;;
40939;SDS011;26666;50.156;7.700;2023-02-15T06:10:17;15.18;;;5.05;;
40939;SDS011;26666;50.156;7.700;2023-02-15T06:15:19;12.98;;;4.50;;
40939;SDS011;26666;50.156;7.700;2023-02-15T06:20:20;14.48;;;4.78;;
40939;SDS011;26666;50.156;7.700;2023-02-15T06:25:22;18.90;;;5.18;;
40939;SDS011;26666;50.156;7.700;2023-02-15T06:30:23;14.23;;;5.65;;
40939;SDS011;26666;50.156;7.700;2023-02-15T06:35:25;20.20;;;5.60;;
40939;SDS011;26666;50.156;7.700;2023-02-15T06:40:26;14.57;;;5.50;;
40939;SDS011;26666;50.156;7.700;2023-02-15T06:45:28;13.57;;;4.55;;
40939;SDS011;26666;50.156;7.700;2023-02-15T06:50:29;12.20;;;5.00;;
40939;SDS011;26666;50.156;7.700;2023-02-15T06:55:31;15.80;;;4.47;;
40939;SDS011;26666;50.156;7.700;2023-02-15T07:00:32;17.35;;;5.03;;
40939;SDS011;26666;50.156;7.700;2023-02-15T07:05:34;15.88;;;5.55;;
40939;SDS011;26666;50.156;7.700;2023-02-15T07:10:36;14.15;;;4.88;;
40939;SDS011;26666;50.156;7.700;2023-02-15T07:15:37;11.55;;;3.95;;
40939;SDS011;26666;50.156;7.700;2023-02-15T07:20:39;14.50;;;4.93;;
40939;SDS011;26666;50.156;7.700;2023-02-15T07:25:40;16.17;;;4.68;;
40939;SDS011;26666;50.156;7.700;2023-02-15T07:30:42;17.40;;;4.28;;
40939;SDS011;26666;50.156;7.700;2023-02-15T07:35:50;16.13;;;5.15;;
40939;SDS011;26666;50.156;7.700;2023-02-15T07:41:04;15.55;;;5.72;;
40939;SDS011;26666;50.156;7.700;2023-02-15T07:46:11;12.07;;;3.72;;
40939;SDS011;26666;50.156;7.700;2023-02-15T07:51:15;12.68;;;3.70;;
40939;SDS011;26666;50.156;7.700;2023-02-15T07:56:17;14.45;;;4.53;;
40939;SDS011;26666;50.156;7.700;2023-02-15T08:01:20;12.32;;;5.00;;
40939;SDS011;26666;50.156;7.700;2023-02-15T08:06:22;14.43;;;4.22;;
40939;SDS011;26666;50.156;7.700;2023-02-15T08:11:33;12.20;;;3.83;;
40939;SDS011;26666;50.156;7.700;2023-02-15T08:16:48;14.32;;;4.65;;
40939;SDS011;26666;50.156;7.700;2023-02-15T08:22:00;13.95;;;4.50;;
40939;SDS011;26666;50.156;7.700;2023-02-15T08:27:04;15.65;;;4.18;;
40939;SDS011;26666;50.156;7.700;2023-02-15T08:32:09;12.27;;;3.78;;
40939;SDS011;26666;50.156;7.700;2023-02-15T08:37:11;11.30;;;3.70;;
40939;SDS011;26666;50.156;7.700;2023-02-15T08:42:13;14.32;;;3.90;;
40939;SDS011;26666;50.156;7.700;2023-02-15T08:47:14;16.10;;;4.78;;
40939;SDS011;26666;50.156;7.700;2023-02-15T08:52:16;17.38;;;4.95;;
40939;SDS011;26666;50.156;7.700;2023-02-15T08:57:18;10.88;;;3.85;;
40939;SDS011;26666;50.156;7.700;2023-02-15T09:02:19;14.48;;;4.57;;
40939;SDS011;26666;50.156;7.700;2023-02-15T09:07:21;14.55;;;4.55;;
40939;SDS011;26666;50.156;7.700;2023-02-15T09:12:22;15.60;;;4.63;;
40939;SDS011;26666;50.156;7.700;2023-02-15T09:17:24;14.88;;;4.18;;
40939;SDS011;26666;50.156;7.700;2023-02-15T09:22:25;14.50;;;4.80;;
40939;SDS011;26666;50.156;7.700;2023-02-15T09:27:27;14.57;;;5.43;;
40939;SDS011;26666;50.156;7.700;2023-02-15T09:32:28;16.33;;;4.65;;
40939;SDS011;26666;50.156;7.700;2023-02-15T09:37:30;16.02;;;4.80;;
40939;SDS011;26666;50.156;7.700;2023-02-15T09:42:48;10.45;;;4.25;;
40939;SDS011;26666;50.156;7.700;2023-02-15T10:52:52;11.25;;;4.00;;
40939;SDS011;26666;50.156;7.700;2023-02-15T11:08:42;11.55;;;4.40;;
40939;SDS011;26666;50.156;7.700;2023-02-15T11:13:47;12.45;;;3.70;;
40939;SDS011;26666;50.156;7.700;2023-02-15T11:18:59;12.93;;;4.00;;
40939;SDS011;26666;50.156;7.700;2023-02-15T11:24:10;9.23;;;3.38;;
40939;SDS011;26666;50.156;7.700;2023-02-15T11:29:18;12.00;;;4.07;;
40939;SDS011;26666;50.156;7.700;2023-02-15T11:34:36;7.82;;;3.83;;
40939;SDS011;26666;50.156;7.700;2023-02-15T11:39:44;12.52;;;3.42;;
40939;SDS011;26666;50.156;7.700;2023-02-15T11:49:59;13.02;;;4.80;;
40939;SDS011;26666;50.156;7.700;2023-02-15T11:55:00;10.40;;;3.83;;
40939;SDS011;26666;50.156;7.700;2023-02-15T12:00:04;8.63;;;3.35;;
40939;SDS011;26666;50.156;7.700;2023-02-15T12:05:19;12.73;;;4.38;;
40939;SDS011;26666;50.156;7.700;2023-02-15T12:10:25;12.75;;;5.05;;
40939;SDS011;26666;50.156;7.700;2023-02-15T12:15:33;9.10;;;4.05;;
40939;SDS011;26666;50.156;7.700;2023-02-15T12:20:36;12.57;;;4.43;;
40939;SDS011;26666;50.156;7.700;2023-02-15T12:25:53;11.65;;;4.68;;
40939;SDS011;26666;50.156;7.700;2023-02-15T12:30:57;13.43;;;5.03;;
40939;SDS011;26666;50.156;7.700;2023-02-15T12:36:04;11.70;;;4.32;;
40939;SDS011;26666;50.156;7.700;2023-02-15T12:41:23;13.27;;;4.82;;
40939;SDS011;26666;50.156;7.700;2023-02-15T12:46:27;11.60;;;4.93;;
40939;SDS011;26666;50.156;7.700;2023-02-15T12:51:29;14.93;;;4.35;;
40939;SDS011;26666;50.156;7.700;2023-02-15T12:56:30;13.07;;;4.80;;
40939;SDS011;26666;50.156;7.700;2023-02-15T13:01:32;13.38;;;4.30;;
40939;SDS011;26666;50.156;7.700;2023-02-15T13:06:35;11.13;;;3.72;;
40939;SDS011;26666;50.156;7.700;2023-02-15T13:11:37;12.85;;;4.85;;
40939;SDS011;26666;50.156;7.700;2023-02-15T13:16:42;11.52;;;4.60;;
40939;SDS011;26666;50.156;7.700;2023-02-15T13:21:50;11.63;;;4.65;;
40939;SDS011;26666;50.156;7.700;2023-02-15T13:26:55;11.10;;;4.90;;
40939;SDS011;26666;50.156;7.700;2023-02-15T13:42:55;16.30;;;5.00;;
40939;SDS011;26666;50.156;7.700;2023-02-15T13:53:22;15.88;;;5.25;;
40939;SDS011;26666;50.156;7.700;2023-02-15T14:09:52;11.10;;;5.43;;
40939;SDS011;26666;50.156;7.700;2023-02-15T14:15:28;12.63;;;5.00;;
40939;SDS011;26666;50.156;7.700;2023-02-15T14:20:45;11.45;;;5.25;;
40939;SDS011;26666;50.156;7.700;2023-02-15T14:25:55;14.43;;;4.68;;
40939;SDS011;26666;50.156;7.700;2023-02-15T14:31:02;11.85;;;5.20;;
40939;SDS011;26666;50.156;7.700;2023-02-15T14:36:07;20.50;;;7.13;;
40939;SDS011;26666;50.156;7.700;2023-02-15T14:41:14;15.38;;;5.57;;
40939;SDS011;26666;50.156;7.700;2023-02-15T14:56:42;15.70;;;5.88;;
40939;SDS011;26666;50.156;7.700;2023-02-15T15:01:51;11.25;;;5.65;;
40939;SDS011;26666;50.156;7.700;2023-02-15T15:22:34;16.30;;;6.22;;
40939;SDS011;26666;50.156;7.700;2023-02-15T15:27:51;17.33;;;5.85;;
40939;SDS011;26666;50.156;7.700;2023-02-15T15:38:03;19.25;;;7.95;;
40939;SDS011;26666;50.156;7.700;2023-02-15T15:43:24;17.40;;;6.78;;
40939;SDS011;26666;50.156;7.700;2023-02-15T15:48:42;12.38;;;6.15;;
40939;SDS011;26666;50.156;7.700;2023-02-15T15:53:45;15.95;;;5.63;;
40939;SDS011;26666;50.156;7.700;2023-02-15T15:58:50;16.58;;;6.97;;
40939;SDS011;26666;50.156;7.700;2023-02-15T16:03:56;15.07;;;7.15;;
40939;SDS011;26666;50.156;7.700;2023-02-15T16:14:25;18.67;;;7.82;;
40939;SDS011;26666;50.156;7.700;2023-02-15T16:19:35;18.02;;;6.55;;
40939;SDS011;26666;50.156;7.700;2023-02-15T16:29:49;15.43;;;7.00;;
40939;SDS011;26666;50.156;7.700;2023-02-15T16:34:59;16.63;;;7.63;;
40939;SDS011;26666;50.156;7.700;2023-02-15T16:40:03;16.25;;;6.20;;
40939;SDS011;26666;50.156;7.700;2023-02-15T16:45:06;22.77;;;7.75;;
40939;SDS011;26666;50.156;7.700;2023-02-15T16:50:22;17.30;;;7.05;;
40939;SDS011;26666;50.156;7.700;2023-02-15T16:55:30;18.92;;;7.35;;
40939;SDS011;26666;50.156;7.700;2023-02-15T17:00:38;18.48;;;7.15;;
40939;SDS011;26666;50.156;7.700;2023-02-15T17:21:24;25.23;;;8.02;;
40939;SDS011;26666;50.156;7.700;2023-02-15T17:26:28;21.73;;;8.20;;
40939;SDS011;26666;50.156;7.700;2023-02-15T17:31:38;22.67;;;7.28;;
40939;SDS011;26666;50.156;7.700;2023-02-15T17:36:41;24.48;;;8.60;;
40939;SDS011;26666;50.156;7.700;2023-02-15T17:41:58;21.98;;;8.52;;
40939;SDS011;26666;50.156;7.700;2023-02-15T17:47:00;23.52;;;8.82;;
40939;SDS011;26666;50.156;7.700;2023-02-15T17:52:01;28.15;;;8.60;;
40939;SDS011;26666;50.156;7.700;2023-02-15T17:57:07;23.10;;;7.97;;
40939;SDS011;26666;50.156;7.700;2023-02-15T18:02:13;17.35;;;7.32;;
40939;SDS011;26666;50.156;7.700;2023-02-15T18:07:15;23.33;;;8.10;;
40939;SDS011;26666;50.156;7.700;2023-02-15T18:12:23;20.20;;;7.88;;
40939;SDS011;26666;50.156;7.700;2023-02-15T18:17:32;18.90;;;8.15;;
40939;SDS011;26666;50.156;7.700;2023-02-15T18:22:39;26.05;;;8.07;;
40939;SDS011;26666;50.156;7.700;2023-02-15T18:27:42;21.48;;;8.93;;
40939;SDS011;26666;50.156;7.700;2023-02-15T18:32:44;28.33;;;9.25;;
40939;SDS011;26666;50.156;7.700;2023-02-15T18:37:47;27.83;;;9.18;;
40939;SDS011;26666;50.156;7.700;2023-02-15T18:42:49;27.95;;;8.13;;
40939;SDS011;26666;50.156;7.700;2023-02-15T18:47:51;23.02;;;9.82;;
40939;SDS011;26666;50.156;7.700;2023-02-15T18:52:52;25.45;;;8.82;;
40939;SDS011;26666;50.156;7.700;2023-02-15T18:57:55;22.58;;;8.55;;
40939;SDS011;26666;50.156;7.700;2023-02-15T19:02:57;21.30;;;5.93;;
40939;SDS011;26666;50.156;7.700;2023-02-15T19:08:00;19.17;;;7.70;;
40939;SDS011;26666;50.156;7.700;2023-02-15T19:13:02;17.80;;;7.55;;
40939;SDS011;26666;50.156;7.700;2023-02-15T19:18:04;15.50;;;6.38;;
40939;SDS011;26666;50.156;7.700;2023-02-15T19:23:06;15.43;;;6.88;;
40939;SDS011;26666;50.156;7.700;2023-02-15T19:28:18;17.02;;;6.82;;
40939;SDS011;26666;50.156;7.700;2023-02-15T19:33:26;13.90;;;6.10;;
40939;SDS011;26666;50.156;7.700;2023-02-15T19:38:31;14.15;;;5.82;;
40939;SDS011;26666;50.156;7.700;2023-02-15T19:43:34;20.00;;;6.93;;
40939;SDS011;26666;50.156;7.700;2023-02-15T19:48:36;14.77;;;5.45;;
40939;SDS011;26666;50.156;7.700;2023-02-15T19:53:37;17.02;;;6.60;;
40939;SDS011;26666;50.156;7.700;2023-02-15T19:58:39;16.77;;;5.05;;
40939;SDS011;26666;50.156;7.700;2023-02-15T20:03:41;8.23;;;4.18;;
40939;SDS011;26666;50.156;7.700;2023-02-15T20:08:42;11.75;;;4.50;;
40939;SDS011;26666;50.156;7.700;2023-02-15T20:13:45;17.85;;;5.97;;
40939;SDS011;26666;50.156;7.700;2023-02-15T20:18:47;12.98;;;5.60;;
40939;SDS011;26666;50.156;7.700;2023-02-15T20:23:49;12.73;;;5.18;;
40939;SDS011;26666;50.156;7.700;2023-02-15T20:28:51;17.83;;;6.88;;
40939;SDS011;26666;50.156;7.700;2023-02-15T20:33:52;12.82;;;5.30;;
40939;SDS011;26666;50.156;7.700;2023-02-15T20:38:54;14.88;;;5.95;;
40939;SDS011;26666;50.156;7.700;2023-02-15T20:43:59;12.33;;;5.17;;
40939;SDS011;26666;50.156;7.700;2023-02-15T20:49:01;16.02;;;5.45;;
40939;SDS011;26666;50.156;7.700;2023-02-15T20:54:08;11.73;;;5.38;;
40939;SDS011;26666;50.156;7.700;2023-02-15T20:59:29;16.13;;;6.32;;
40939;SDS011;26666;50.156;7.700;2023-02-15T21:04:32;19.95;;;8.05;;
40939;SDS011;26666;50.156;7.700;2023-02-15T21:09:34;14.77;;;6.22;;
40939;SDS011;26666;50.156;7.700;2023-02-15T21:14:36;12.00;;;5.60;;
40939;SDS011;26666;50.156;7.700;2023-02-15T21:19:38;19.88;;;6.68;;
40939;SDS011;26666;50.156;7.700;2023-02-15T21:24:43;20.70;;;7.13;;
40939;SDS011;26666;50.156;7.700;2023-02-15T21:29:49;12.00;;;5.38;;
40939;SDS011;26666;50.156;7.700;2023-02-15T21:34:51;12.95;;;4.97;;
40939;SDS011;26666;50.156;7.700;2023-02-15T21:39:52;11.90;;;5.00;;
40939;SDS011;26666;50.156;7.700;2023-02-15T21:44:54;18.95;;;6.07;;
40939;SDS011;26666;50.156;7.700;2023-02-15T21:49:56;10.35;;;4.15;;
40939;SDS011;26666;50.156;7.700;2023-02-15T21:54:57;10.38;;;5.28;;
40939;SDS011;26666;50.156;7.700;2023-02-15T21:59:59;11.70;;;4.60;;
40939;SDS011;26666;50.156;7.700;2023-02-15T22:05:00;15.07;;;6.47;;
40939;SDS011;26666;50.156;7.700;2023-02-15T22:10:02;16.92;;;6.00;;
40939;SDS011;26666;50.156;7.700;2023-02-15T22:15:04;9.57;;;5.50;;
40939;SDS011;26666;50.156;7.700;2023-02-15T22:20:11;11.35;;;5.20;;
40939;SDS011;26666;50.156;7.700;2023-02-15T22:25:15;15.52;;;5.90;;
40939;SDS011;26666;50.156;7.700;2023-02-15T22:35:25;15.80;;;6.28;;
40939;SDS011;26666;50.156;7.700;2023-02-15T22:40:33;18.08;;;5.50;;
40939;SDS011;26666;50.156;7.700;2023-02-15T22:45:35;16.07;;;6.30;;
40939;SDS011;26666;50.156;7.700;2023-02-15T22:50:37;17.02;;;5.97;;
40939;SDS011;26666;50.156;7.700;2023-02-15T22:55:40;15.25;;;5.13;;
40939;SDS011;26666;50.156;7.700;2023-02-15T23:00:41;22.00;;;7.40;;
40939;SDS011;26666;50.156;7.700;2023-02-15T23:05:45;14.80;;;5.60;;
40939;SDS011;26666;50.156;7.700;2023-02-15T23:10:52;18.77;;;6.03;;
40939;SDS011;26666;50.156;7.700;2023-02-15T23:15:56;23.38;;;6.53;;
40939;SDS011;26666;50.156;7.700;2023-02-15T23:21:01;20.42;;;6.82;;
40939;SDS011;26666;50.156;7.700;2023-02-15T23:26:12;25.30;;;7.05;;
40939;SDS011;26666;50.156;7.700;2023-02-15T23:31:24;21.90;;;6.63;;
40939;SDS011;26666;50.156;7.700;2023-02-15T23:36:38;14.43;;;5.82;;
40939;SDS011;26666;50.156;7.700;2023-02-15T23:41:40;25.10;;;6.65;;
40939;SDS011;26666;50.156;7.700;2023-02-15T23:46:42;22.75;;;7.68;;
40939;SDS011;26666;50.156;7.700;2023-02-15T23:51:47;13.10;;;5.17;;
40939;SDS011;26666;50.156;7.700;2023-02-15T23:56:56;20.20;;;6.60;;
